Time;durP1;ratioP1;P1;durP2;ratioP2;P2;SDS_P1;SDS_P2;PMS_P1;PMS_P2;Temp;Humidity;BMP_temperature;BMP_pressure;BME280_temperature;BME280_humidity;BME280_pressure;Samples;Min_cycle;Max_cycle;Signal;HPM_P1;HPM_P2
2022/07/08 00:00:46;;;;;;;31.62;25.40;;;;;;;28.62;90.59;100445.19;1693241;83;21048;-73
2022/07/08 00:03:13;;;;;;;31.62;25.85;;;;;;;28.48;90.96;100453.45;1693312;84;21565;-73
2022/07/08 00:05:40;;;;;;;29.35;25.25;;;;;;;28.42;91.32;100450.23;1693510;83;21047;-72
2022/07/08 00:08:08;;;;;;;32.15;25.37;;;;;;;28.43;91.04;100450.05;1692904;84;21114;-73
2022/07/08 00:10:36;;;;;;;35.58;25.57;;;;;;;28.60;90.24;100453.83;1692754;84;21084;-72
2022/07/08 00:13:04;;;;;;;36.68;26.37;;;;;;;28.63;88.92;100452.95;1692805;84;21079;-72
2022/07/08 00:15:33;;;;;;;36.77;26.33;;;;;;;28.52;89.54;100449.45;1693170;84;21079;-72
2022/07/08 00:18:00;;;;;;;32.40;25.57;;;;;;;28.47;90.56;100450.00;1692799;84;21104;-72
2022/07/08 00:20:27;;;;;;;31.97;25.48;;;;;;;28.40;90.97;100443.79;1692885;84;21032;-72
2022/07/08 00:22:57;;;;;;;30.35;25.10;;;;;;;28.52;90.31;100449.45;1693005;84;21059;-72
2022/07/08 00:25:24;;;;;;;33.28;26.12;;;;;;;28.50;90.18;100447.50;1692650;83;21163;-72
2022/07/08 00:27:51;;;;;;;33.65;26.30;;;;;;;28.44;90.32;100445.06;1692886;84;21027;-72
2022/07/08 00:30:18;;;;;;;34.67;26.48;;;;;;;28.27;90.58;100445.78;1692965;84;21087;-72
2022/07/08 00:32:46;;;;;;;35.75;27.42;;;;;;;28.05;92.12;100444.89;1692709;84;21055;-72
2022/07/08 00:35:14;;;;;;;41.35;32.05;;;;;;;28.00;92.41;100452.55;1692831;84;21531;-72
2022/07/08 00:37:41;;;;;;;37.83;29.10;;;;;;;28.09;91.99;100456.75;1693105;84;21107;-72
2022/07/08 00:40:11;;;;;;;35.28;28.77;;;;;;;28.13;91.65;100450.59;1692917;84;21061;-72
2022/07/08 00:42:39;;;;;;;34.30;27.15;;;;;;;28.13;91.21;100454.05;1693223;84;21099;-72
2022/07/08 00:45:07;;;;;;;36.68;28.62;;;;;;;28.38;89.73;100449.27;1693251;84;21016;-72
2022/07/08 00:47:34;;;;;;;36.68;28.12;;;;;;;28.60;88.36;100449.86;1693182;83;21123;-72
2022/07/08 00:50:01;;;;;;;32.50;26.73;;;;;;;28.50;88.26;100455.45;1692726;84;21128;-72
2022/07/08 00:52:29;;;;;;;32.50;26.07;;;;;;;28.16;90.07;100445.77;1692813;84;21033;-72
2022/07/08 00:54:56;;;;;;;34.33;25.70;;;;;;;28.29;90.23;100443.77;1692954;84;21091;-73
2022/07/08 00:57:24;;;;;;;35.10;27.35;;;;;;;27.82;91.83;100446.77;1692700;84;21064;-72
2022/07/08 00:59:52;;;;;;;32.42;26.15;;;;;;;27.64;93.17;100442.67;1692878;83;21099;-72
2022/07/08 01:02:19;;;;;;;31.97;27.07;;;;;;;27.55;93.46;100452.49;1692720;84;21098;-72
2022/07/08 01:04:47;;;;;;;33.28;27.02;;;;;;;27.60;93.17;100451.16;1692988;84;21100;-72
2022/07/08 01:07:14;;;;;;;31.93;26.35;;;;;;;27.33;94.30;100450.24;1692863;84;21078;-72
2022/07/08 01:09:42;;;;;;;34.23;26.12;;;;;;;27.30;94.65;100449.27;1692771;84;21096;-72
2022/07/08 01:12:10;;;;;;;32.03;25.92;;;;;;;27.60;93.18;100436.11;1692954;84;21511;-72
2022/07/08 01:14:37;;;;;;;31.75;26.07;;;;;;;29.02;86.60;100446.92;1665394;85;21064;-72
2022/07/08 01:17:04;;;;;;;32.73;26.00;;;;;;;29.65;80.23;100448.34;1693187;83;21048;-71
2022/07/08 01:19:33;;;;;;;32.58;25.43;;;;;;;27.81;85.52;100445.14;1692708;84;21086;-72
2022/07/08 01:22:00;;;;;;;32.65;26.00;;;;;;;27.41;90.91;100449.33;1692968;83;21586;-72
2022/07/08 01:24:27;;;;;;;34.23;25.40;;;;;;;27.45;91.06;100455.89;1692706;83;21488;-73
2022/07/08 01:26:56;;;;;;;31.27;25.48;;;;;;;27.19;92.24;100449.67;1692600;83;21737;-72
2022/07/08 01:29:24;;;;;;;30.25;25.92;;;;;;;27.16;92.82;100443.41;1692951;84;21118;-72
2022/07/08 01:31:53;;;;;;;34.00;26.37;;;;;;;28.00;92.83;100439.83;1692794;84;21083;-72
2022/07/08 01:34:23;;;;;;;35.05;27.55;;;;;;;26.93;93.24;100444.24;1692829;84;21559;-72
2022/07/08 01:36:49;;;;;;;37.30;29.55;;;;;;;26.88;95.18;100437.33;1692300;83;21047;-72
2022/07/08 01:39:16;;;;;;;39.23;29.05;;;;;;;26.82;95.03;100444.64;1692880;84;21083;-72
2022/07/08 01:41:43;;;;;;;37.48;29.50;;;;;;;26.75;95.59;100437.11;1692909;84;21043;-72
2022/07/08 01:44:11;;;;;;;37.13;28.47;;;;;;;26.75;95.64;100441.88;1692489;83;21532;-72
2022/07/08 01:46:38;;;;;;;35.60;28.75;;;;;;;26.70;96.66;100446.04;1692816;83;21182;-72
2022/07/08 01:49:05;;;;;;;39.03;28.15;;;;;;;26.76;96.29;100445.34;1692720;83;21059;-72
2022/07/08 01:51:33;;;;;;;35.38;27.00;;;;;;;26.77;95.89;100451.77;1692819;83;21150;-72
2022/07/08 01:54:00;;;;;;;33.15;26.02;;;;;;;26.67;95.60;100456.45;1692657;84;21059;-72
2022/07/08 01:56:27;;;;;;;33.85;26.48;;;;;;;26.62;95.74;100452.69;1692853;84;21048;-73
2022/07/08 01:58:53;;;;;;;33.10;25.27;;;;;;;26.58;95.16;100450.89;1693124;84;21223;-72
2022/07/08 02:01:20;;;;;;;34.00;24.80;;;;;;;26.47;95.83;100445.48;1692902;84;21100;-72
2022/07/08 02:03:48;;;;;;;28.92;23.55;;;;;;;26.38;96.52;100453.13;1692999;83;21027;-72
2022/07/08 02:06:15;;;;;;;33.50;24.87;;;;;;;26.29;96.99;100455.47;1693031;84;21480;-72
2022/07/08 02:08:43;;;;;;;31.12;24.55;;;;;;;26.25;97.79;100457.62;1693093;85;21070;-72
2022/07/08 02:13:55;;;;;;;37.15;25.75;;;;;;;26.41;97.33;100459.37;1665579;84;21111;-73
2022/07/08 02:16:22;;;;;;;33.28;25.75;;;;;;;26.38;97.11;100465.00;1693031;83;21079;-73
2022/07/08 02:18:49;;;;;;;36.28;27.85;;;;;;;26.39;96.52;100464.81;1693043;83;21102;-73
2022/07/08 02:21:17;;;;;;;35.30;25.92;;;;;;;26.34;96.24;100476.91;1692701;83;21067;-73
2022/07/08 02:23:44;;;;;;;29.32;24.65;;;;;;;26.31;95.97;100473.27;1692550;84;21048;-73
2022/07/08 02:26:11;;;;;;;31.25;23.95;;;;;;;26.30;95.37;100476.41;1693129;84;21084;-73
2022/07/08 02:28:39;;;;;;;34.33;24.32;;;;;;;26.31;95.21;100470.63;1692678;84;21298;-72
2022/07/08 02:31:06;;;;;;;29.18;23.87;;;;;;;26.44;94.50;100466.11;1692559;84;21024;-71
2022/07/08 02:33:33;;;;;;;29.10;23.67;;;;;;;26.46;93.51;100470.72;1692504;83;21099;-72
2022/07/08 02:36:03;;;;;;;33.10;23.90;;;;;;;26.38;94.41;100472.92;1692707;84;21078;-72
2022/07/08 02:38:31;;;;;;;32.73;25.43;;;;;;;26.58;92.90;100482.09;1692576;84;21015;-72
2022/07/08 02:40:58;;;;;;;32.05;25.27;;;;;;;26.50;93.16;100483.90;1692988;84;21088;-72
2022/07/08 02:43:25;;;;;;;31.60;24.55;;;;;;;26.45;93.72;100487.06;1692855;84;21067;-72
2022/07/08 02:45:53;;;;;;;34.75;24.00;;;;;;;26.71;92.71;100493.41;1692723;83;21040;-72
2022/07/08 02:48:20;;;;;;;31.02;23.55;;;;;;;26.67;92.30;100493.94;1692978;84;21063;-72
2022/07/08 02:50:47;;;;;;;30.40;23.90;;;;;;;26.58;92.51;100492.66;1692767;84;21127;-72
2022/07/08 02:53:14;;;;;;;28.05;23.22;;;;;;;28.45;86.74;100490.91;1692908;83;21603;-72
2022/07/08 02:55:41;;;;;;;28.75;23.62;;;;;;;27.27;87.31;100497.69;1692796;83;21103;-72
2022/07/08 02:58:08;;;;;;;28.15;22.65;;;;;;;27.11;89.38;100497.27;1692918;84;21531;-72
2022/07/08 03:00:35;;;;;;;28.05;22.82;;;;;;;27.06;90.16;100498.31;1692981;83;21071;-72
2022/07/08 03:03:02;;;;;;;31.30;22.27;;;;;;;27.22;89.88;100496.05;1692909;84;21094;-72
2022/07/08 03:05:30;;;;;;;28.42;22.35;;;;;;;27.36;89.62;100496.12;1692871;84;21103;-72
2022/07/08 03:07:56;;;;;;;33.45;23.50;;;;;;;27.09;90.09;100498.79;1692692;83;21144;-72
2022/07/08 03:10:24;;;;;;;30.48;22.85;;;;;;;27.16;89.75;100501.54;1692825;83;21563;-72
2022/07/08 03:12:51;;;;;;;28.90;23.05;;;;;;;27.06;89.88;100502.27;1693043;84;21063;-72
2022/07/08 03:15:18;;;;;;;29.15;21.68;;;;;;;27.20;89.41;100509.44;1692911;84;21051;-72
2022/07/08 03:17:45;;;;;;;31.27;22.30;;;;;;;29.14;83.18;100500.57;1692626;84;21539;-72
2022/07/08 03:20:13;;;;;;;29.75;22.10;;;;;;;27.67;85.80;100505.77;1693169;84;21055;-72
2022/07/08 03:22:40;;;;;;;30.75;22.30;;;;;;;27.55;88.78;100505.88;1692847;83;21551;-72
2022/07/08 03:25:09;;;;;;;28.50;22.13;;;;;;;27.66;89.28;100505.97;1692802;84;21091;-72
2022/07/08 03:27:36;;;;;;;33.02;22.80;;;;;;;27.74;89.48;100506.70;1693035;84;21515;-72
2022/07/08 03:30:06;;;;;;;24.63;21.42;;;;;;;27.90;89.36;100508.41;1692771;84;21096;-72
2022/07/08 03:32:33;;;;;;;26.02;22.30;;;;;;;27.98;89.23;100507.47;1693431;83;20996;-72
2022/07/08 03:35:00;;;;;;;29.85;21.62;;;;;;;30.12;80.13;100505.19;1692849;84;21528;-72
2022/07/08 03:37:27;;;;;;;28.17;21.75;;;;;;;29.72;82.83;100507.59;1693351;84;21055;-72
2022/07/08 03:39:54;;;;;;;27.02;22.15;;;;;;;30.34;78.09;100507.27;1693074;83;21104;-72
2022/07/08 03:42:21;;;;;;;26.65;21.90;;;;;;;30.79;75.06;100508.95;1693117;84;21547;-72
2022/07/08 03:44:48;;;;;;;24.65;21.60;;;;;;;30.95;74.05;100510.45;1693106;84;21071;-72
2022/07/08 03:47:16;;;;;;;26.52;21.87;;;;;;;30.36;76.20;100514.53;1693168;84;21594;-72
2022/07/08 03:49:43;;;;;;;33.60;23.35;;;;;;;30.82;74.20;100509.90;1693374;83;21057;-72
2022/07/08 03:52:10;;;;;;;27.82;22.65;;;;;;;29.40;77.84;100519.06;1693057;83;21250;-72
2022/07/08 03:54:37;;;;;;;29.02;22.35;;;;;;;29.45;77.15;100522.47;1693369;84;21054;-72
2022/07/08 03:57:06;;;;;;;30.80;23.05;;;;;;;29.01;81.47;100516.81;1693162;84;21104;-72
2022/07/08 03:59:33;;;;;;;27.80;22.87;;;;;;;28.83;83.45;100514.59;1693120;84;21111;-72
2022/07/08 04:02:00;;;;;;;31.85;22.80;;;;;;;29.03;83.13;100512.14;1692983;84;21071;-72
2022/07/08 04:04:27;;;;;;;30.75;21.95;;;;;;;29.10;83.43;100513.05;1692635;83;21102;-72
2022/07/08 04:06:54;;;;;;;28.02;22.20;;;;;;;29.16;83.48;100514.45;1691074;83;21079;-72
2022/07/08 04:09:24;;;;;;;27.67;22.62;;;;;;;29.30;83.76;100522.52;1692410;83;21150;-72
2022/07/08 04:11:52;;;;;;;25.72;22.37;;;;;;;29.39;83.31;100526.69;1692848;83;21555;-73
2022/07/08 04:14:19;;;;;;;30.10;21.85;;;;;;;29.81;81.73;100529.00;1693102;85;21092;-71
2022/07/08 04:16:46;;;;;;;28.45;20.65;;;;;;;30.02;81.12;100528.10;1690459;84;21071;-71
2022/07/08 04:19:13;;;;;;;23.80;19.48;;;;;;;29.83;81.50;100529.63;1693068;84;21040;-71
2022/07/08 04:21:41;;;;;;;22.40;18.17;;;;;;;30.08;80.26;100533.95;1691145;85;21059;-72
2022/07/08 04:24:08;;;;;;;25.70;18.12;;;;;;;30.21;78.96;100527.92;1692719;85;21599;-72
2022/07/08 04:26:35;;;;;;;25.17;16.27;;;;;;;30.47;77.56;100530.41;1683845;83;21624;-72
2022/07/08 04:29:04;;;;;;;20.72;15.78;;;;;;;30.71;75.23;100527.22;1693181;85;21044;-72
2022/07/08 04:31:31;;;;;;;20.35;16.15;;;;;;;30.82;74.29;100530.31;1692804;83;21083;-72
2022/07/08 04:33:58;;;;;;;24.02;15.90;;;;;;;31.02;72.55;100527.22;1693086;83;21102;-72
2022/07/08 04:36:25;;;;;;;20.72;15.63;;;;;;;31.05;72.49;100533.48;1692950;83;21546;-72
2022/07/08 04:38:52;;;;;;;21.48;15.05;;;;;;;31.13;71.77;100530.62;1693130;83;21083;-72
2022/07/08 04:41:19;;;;;;;21.97;14.75;;;;;;;31.23;70.81;100530.76;1692903;84;21051;-72
2022/07/08 04:43:46;;;;;;;19.20;14.55;;;;;;;31.41;71.05;100534.12;1693285;83;21071;-72
2022/07/08 04:46:15;;;;;;;19.23;13.80;;;;;;;31.63;69.60;100540.92;1692993;84;21586;-72
2022/07/08 04:48:42;;;;;;;18.80;14.35;;;;;;;31.79;68.13;100533.53;1693081;84;21059;-71
2022/07/08 04:51:11;;;;;;;20.40;13.10;;;;;;;31.93;67.26;100537.28;1693115;84;21594;-72
2022/07/08 04:53:38;;;;;;;18.75;12.55;;;;;;;32.05;66.60;100540.68;1692811;83;21064;-72
2022/07/08 04:56:06;;;;;;;15.75;11.50;;;;;;;32.32;65.00;100542.25;1693019;83;21011;-71
2022/07/08 04:58:34;;;;;;;18.10;11.70;;;;;;;32.16;62.24;100541.87;1693065;84;22148;-72
2022/07/08 05:01:01;;;;;;;15.08;10.38;;;;;;;32.29;62.67;100543.98;1692980;83;21527;-72
2022/07/08 05:03:28;;;;;;;14.93;9.98;;;;;;;32.36;57.98;100543.95;1692682;84;21079;-72
2022/07/08 05:05:55;;;;;;;19.87;10.18;;;;;;;32.69;58.37;100545.20;1692800;84;21063;-72
2022/07/08 05:08:23;;;;;;;15.55;9.50;;;;;;;32.85;58.12;100540.41;1693231;83;21058;-72
2022/07/08 05:10:50;;;;;;;14.70;8.95;;;;;;;33.06;56.36;100543.25;1692783;84;21063;-72
2022/07/08 05:13:18;;;;;;;16.25;9.90;;;;;;;33.28;54.52;100542.41;1692907;83;21055;-73
2022/07/08 05:15:46;;;;;;;12.70;7.97;;;;;;;33.37;55.15;100538.42;1692774;83;21063;-72
2022/07/08 05:18:14;;;;;;;16.52;7.30;;;;;;;33.42;52.83;100542.61;1692870;84;21118;-72
2022/07/08 05:20:41;;;;;;;11.80;8.53;;;;;;;33.50;50.66;100542.33;1693065;84;21058;-72
2022/07/08 05:23:08;;;;;;;12.98;7.47;;;;;;;33.69;52.78;100541.06;1692454;83;21091;-71
2022/07/08 05:25:36;;;;;;;16.10;7.25;;;;;;;33.66;52.06;100546.33;1692596;84;21067;-72
2022/07/08 05:28:03;;;;;;;16.95;7.60;;;;;;;33.59;50.81;100550.88;1692610;84;21083;-72
2022/07/08 05:30:33;;;;;;;10.53;7.25;;;;;;;33.85;51.36;100541.02;1692779;84;21119;-73
2022/07/08 05:33:00;;;;;;;15.40;7.58;;;;;;;34.09;51.39;100548.69;1692904;84;21131;-72
2022/07/08 05:35:27;;;;;;;10.40;7.42;;;;;;;34.06;50.43;100549.12;1692902;83;21094;-72
2022/07/08 05:37:54;;;;;;;9.90;7.62;;;;;;;34.13;50.86;100549.88;1692856;84;21236;-73
2022/07/08 05:40:21;;;;;;;18.00;7.85;;;;;;;34.23;51.00;100553.40;1692968;84;21055;-73
2022/07/08 05:42:49;;;;;;;12.10;7.42;;;;;;;34.32;50.31;100545.36;1693017;84;21095;-72
2022/07/08 05:45:16;;;;;;;12.70;7.50;;;;;;;34.52;49.88;100547.80;1693007;84;21071;-73
2022/07/08 05:47:44;;;;;;;10.98;7.08;;;;;;;34.50;49.42;100544.00;1693224;83;21067;-72
2022/07/08 05:50:11;;;;;;;15.23;6.42;;;;;;;34.46;50.44;100547.36;1692821;84;21043;-73
2022/07/08 05:52:39;;;;;;;10.98;5.28;;;;;;;34.44;48.87;100543.56;1666519;85;21083;-72
2022/07/08 05:55:07;;;;;;;13.65;6.15;;;;;;;34.40;46.82;100546.39;1661170;85;21104;-73
2022/07/08 05:57:34;;;;;;;9.93;6.30;;;;;;;34.75;48.15;100540.41;1668577;85;21029;-72
2022/07/08 06:00:01;;;;;;;10.50;6.78;;;;;;;35.02;47.94;100546.22;1668718;85;21092;-72
2022/07/08 06:02:30;;;;;;;12.75;6.50;;;;;;;37.12;44.29;100547.27;1659485;85;21137;-73
2022/07/08 06:04:58;;;;;;;13.00;4.75;;;;;;;35.60;45.88;100550.57;1661458;85;21071;-72
2022/07/08 06:07:25;;;;;;;11.10;5.55;;;;;;;35.20;44.54;100551.21;1668315;85;21631;-72
2022/07/08 06:09:53;;;;;;;14.33;5.15;;;;;;;35.23;45.36;100552.11;1660714;85;21106;-70
2022/07/08 06:12:21;;;;;;;9.58;4.40;;;;;;;35.06;43.10;100555.42;1677837;83;21570;-72
2022/07/08 06:14:47;;;;;;;7.75;3.80;;;;;;;34.86;41.00;100557.04;1691568;83;21472;-71
2022/07/08 06:17:15;;;;;;;11.00;4.40;;;;;;;34.78;41.72;100552.54;1692824;84;22270;-72
2022/07/08 06:19:44;;;;;;;7.67;3.85;;;;;;;34.84;42.77;100562.33;1692497;83;21126;-73
2022/07/08 06:22:11;;;;;;;11.45;3.83;;;;;;;34.62;40.95;100561.97;1692675;84;21090;-71
2022/07/08 06:24:43;;;;;;;12.65;4.30;;;;;;;34.61;40.82;100565.17;1685260;84;21080;-72
2022/07/08 06:27:08;;;;;;;13.88;4.25;;;;;;;34.67;40.92;100566.13;1685024;83;21146;-72
2022/07/08 06:29:36;;;;;;;10.05;4.20;;;;;;;34.96;41.21;100564.52;1686012;83;21051;-71
2022/07/08 06:32:04;;;;;;;11.83;4.20;;;;;;;35.46;40.57;100566.03;1685685;85;21879;-71
2022/07/08 06:34:31;;;;;;;10.80;4.00;;;;;;;35.61;39.49;100565.60;1685904;84;21055;-72
2022/07/08 06:36:58;;;;;;;10.68;5.37;;;;;;;35.73;41.64;100565.11;1686245;84;21122;-73
2022/07/08 06:39:26;;;;;;;9.95;5.05;;;;;;;36.00;42.59;100566.77;1685372;84;21087;-72
2022/07/08 06:41:53;;;;;;;14.53;4.28;;;;;;;36.08;42.02;100564.27;1685225;85;21146;-72
2022/07/08 06:44:20;;;;;;;8.65;4.67;;;;;;;35.96;39.26;100566.95;1685178;84;21118;-73
2022/07/08 06:46:47;;;;;;;14.60;4.45;;;;;;;36.19;40.66;100567.46;1685336;83;21051;-73
2022/07/08 06:49:15;;;;;;;8.78;4.78;;;;;;;37.23;39.35;100561.69;1685168;84;21075;-72
2022/07/08 06:51:42;;;;;;;9.88;4.80;;;;;;;38.68;37.93;100569.59;1685087;84;21051;-73
2022/07/08 06:56:56;;;;;;;16.97;4.15;;;;;;;36.55;38.14;100570.06;1685267;84;21044;-73
2022/07/08 06:59:23;;;;;;;11.12;4.62;;;;;;;36.36;38.91;100571.58;1685308;84;21064;-73
2022/07/08 07:01:52;;;;;;;12.37;3.90;;;;;;;36.57;39.11;100563.39;1685222;85;21091;-73
2022/07/08 07:04:20;;;;;;;8.15;4.00;;;;;;;38.81;34.89;100568.91;1685436;85;21044;-73
2022/07/08 07:06:47;;;;;;;11.25;3.90;;;;;;;39.00;33.97;100568.06;1685011;85;21064;-73
2022/07/08 07:09:14;;;;;;;10.05;3.75;;;;;;;38.71;33.92;100562.09;1685122;84;21095;-72
2022/07/08 07:11:42;;;;;;;10.35;3.47;;;;;;;39.16;33.39;100559.05;1684982;84;21571;-73
2022/07/08 07:14:10;;;;;;;11.55;3.87;;;;;;;39.05;33.37;100554.63;1685090;84;21607;-74
2022/07/08 07:16:40;;;;;;;12.40;4.20;;;;;;;39.09;31.87;100554.94;1685147;84;21615;-73
2022/07/08 07:19:06;;;;;;;12.55;3.87;;;;;;;38.78;33.54;100549.25;1673350;83;21104;-71
2022/07/08 07:21:33;;;;;;;11.10;4.00;;;;;;;39.34;33.90;100554.31;1681019;83;21174;-73
2022/07/08 07:24:00;;;;;;;10.85;4.00;;;;;;;39.72;31.44;100545.70;1691333;84;21067;-72
2022/07/08 07:26:27;;;;;;;16.05;4.17;;;;;;;39.31;32.61;100551.61;1691936;84;21091;-73
2022/07/08 07:28:55;;;;;;;8.50;4.10;;;;;;;39.17;32.47;100548.53;1691794;84;21111;-73
2022/07/08 07:31:22;;;;;;;11.60;4.50;;;;;;;39.61;34.46;100545.65;1681375;84;21055;-72
2022/07/08 07:33:49;;;;;;;10.63;4.17;;;;;;;39.56;33.41;100546.98;1683717;84;21118;-74
2022/07/08 07:36:16;;;;;;;10.90;4.22;;;;;;;39.66;33.56;100544.86;1680806;83;21092;-71
2022/07/08 07:38:43;;;;;;;6.78;4.20;;;;;;;39.43;34.59;100544.18;1688638;83;21583;-71
2022/07/08 07:41:10;;;;;;;18.25;4.72;;;;;;;39.42;33.06;100549.31;1684954;83;21103;-74
2022/07/08 07:43:38;;;;;;;10.15;4.30;;;;;;;39.43;32.44;100544.73;1685331;84;21170;-74
2022/07/08 07:46:05;;;;;;;16.77;4.45;;;;;;;39.79;31.28;100540.36;1685228;84;21055;-74
2022/07/08 07:48:32;;;;;;;9.53;3.90;;;;;;;39.81;32.97;100537.41;1685023;83;21224;-74
2022/07/08 07:50:59;;;;;;;10.20;3.70;;;;;;;39.68;30.93;100535.17;1685448;84;21087;-73
2022/07/08 07:53:27;;;;;;;15.85;3.77;;;;;;;39.85;30.66;100534.47;1685092;84;21095;-74
2022/07/08 07:55:54;;;;;;;7.65;3.80;;;;;;;39.89;29.04;100527.51;1685527;83;21051;-73
2022/07/08 07:58:21;;;;;;;7.85;3.70;;;;;;;40.20;29.76;100528.97;1682918;84;21083;-73
2022/07/08 08:00:50;;;;;;;10.30;3.47;;;;;;;40.05;30.33;100529.19;1685930;84;21094;-73
2022/07/08 08:03:17;;;;;;;8.90;3.58;;;;;;;39.72;29.35;100526.30;1679353;84;21088;-71
2022/07/08 08:05:45;;;;;;;12.40;3.15;;;;;;;39.66;29.51;100525.48;1692107;84;21035;-70
2022/07/08 08:08:13;;;;;;;11.45;3.47;;;;;;;40.16;28.05;100528.68;1686158;83;21125;-72
2022/07/08 08:10:41;;;;;;;9.48;3.30;;;;;;;40.32;30.20;100530.92;1686168;84;21647;-71
2022/07/08 08:13:10;;;;;;;8.30;2.85;;;;;;;40.59;28.33;100527.19;1685351;84;21071;-72
2022/07/08 08:15:37;;;;;;;11.22;2.87;;;;;;;40.88;27.46;100524.00;1685911;84;21591;-72
2022/07/08 08:18:05;;;;;;;11.08;2.75;;;;;;;40.96;30.15;100525.64;1685736;84;21071;-72
2022/07/08 08:20:32;;;;;;;10.03;2.67;;;;;;;40.86;27.98;100521.59;1685916;85;21084;-71
2022/07/08 08:23:00;;;;;;;8.45;2.35;;;;;;;40.60;28.28;100518.84;1685779;84;21486;-72
2022/07/08 08:25:28;;;;;;;6.83;2.42;;;;;;;40.68;27.82;100521.55;1685845;84;21115;-73
2022/07/08 08:27:56;;;;;;;7.33;2.47;;;;;;;40.52;26.24;100515.87;1685896;84;21512;-72
2022/07/08 08:30:23;;;;;;;9.05;2.77;;;;;;;40.63;27.26;100512.09;1686094;84;21496;-72
2022/07/08 08:32:51;;;;;;;6.90;2.92;;;;;;;39.91;27.24;100513.23;1685923;84;21138;-72
2022/07/08 08:35:18;;;;;;;8.73;2.58;;;;;;;40.66;27.98;100512.91;1686006;84;21099;-71
2022/07/08 08:37:47;;;;;;;7.50;2.60;;;;;;;41.02;27.65;100504.31;1685573;84;21485;-72
2022/07/08 08:40:15;;;;;;;7.62;2.90;;;;;;;40.16;28.05;100504.95;1686080;83;21109;-72
2022/07/08 08:42:43;;;;;;;8.15;2.80;;;;;;;39.96;29.79;100503.00;1686086;84;21043;-73
2022/07/08 08:45:12;;;;;;;5.85;2.40;;;;;;;40.25;29.37;100501.48;1685782;83;21122;-71
2022/07/08 08:47:39;;;;;;;10.63;3.00;;;;;;;40.82;29.12;100511.87;1686111;84;21133;-73
2022/07/08 08:52:57;;;;;;;11.25;2.77;;;;;;;38.43;30.56;100501.54;1686459;83;21567;-72
2022/07/08 08:55:27;;;;;;;9.05;3.25;;;;;;;38.38;30.71;100508.19;1686177;84;21090;-71
2022/07/08 08:58:03;;;;;;;8.30;2.70;;;;;;;38.81;29.71;100504.33;1686147;84;21036;-73
2022/07/08 09:00:34;;;;;;;8.83;2.67;;;;;;;38.87;29.33;100497.92;1686367;83;21535;-72
2022/07/08 09:03:01;;;;;;;9.38;2.70;;;;;;;38.70;28.50;100497.25;1686064;85;21072;-74
2022/07/08 09:05:30;;;;;;;7.67;2.60;;;;;;;39.03;27.48;100495.69;1686046;84;21106;-72
2022/07/08 09:07:59;;;;;;;5.62;2.92;;;;;;;39.10;29.46;100500.05;1685794;85;21066;-73
2022/07/08 09:10:28;;;;;;;7.12;2.35;;;;;;;39.23;29.27;100490.96;1686254;84;21059;-72
2022/07/08 09:13:14;;;;;;;9.80;3.02;;;;;;;39.31;29.70;100488.33;1686144;83;21071;-72
2022/07/08 09:15:50;;;;;;;9.53;2.83;;;;;;;38.97;28.51;100489.99;1664865;85;21045;-72
2022/07/08 09:18:19;;;;;;;5.92;2.90;;;;;;;38.47;28.56;100484.37;1666251;85;21646;-73
2022/07/08 09:20:53;;;;;;;8.03;2.80;;;;;;;38.63;29.59;100490.20;1666530;86;21074;-73
2022/07/08 09:23:28;;;;;;;4.62;2.90;;;;;;;38.70;29.00;100488.64;1662046;86;21035;-74
2022/07/08 09:26:00;;;;;;;7.62;2.70;;;;;;;38.79;28.78;100492.50;1664706;86;21603;-73
2022/07/08 09:28:36;;;;;;;7.03;2.70;;;;;;;38.93;29.52;100483.44;1664641;85;21036;-73
2022/07/08 09:31:07;;;;;;;7.58;2.92;;;;;;;39.12;30.13;100481.20;1665048;85;21543;-73
2022/07/08 09:33:36;;;;;;;7.67;2.65;;;;;;;39.45;29.21;100476.59;1665128;85;21136;-72
2022/07/08 09:36:05;;;;;;;7.37;2.40;;;;;;;39.40;29.33;100476.55;1655283;86;21109;-73
2022/07/08 09:38:35;;;;;;;8.80;2.83;;;;;;;38.90;28.23;100475.09;1676250;85;21085;-73
2022/07/08 09:41:05;;;;;;;6.33;2.70;;;;;;;38.74;28.04;100484.91;1676483;83;21098;-73
2022/07/08 09:43:49;;;;;;;12.70;3.33;;;;;;;38.60;28.11;100480.48;1686039;84;21084;-73
2022/07/08 09:46:16;;;;;;;;;;;;;;;38.92;29.49;100485.06;1687931;83;21029;-73
2022/07/08 09:48:44;;;;;;;9.80;2.70;;;;;;;39.09;29.64;100481.71;1671593;84;20139;-73
2022/07/08 09:51:16;;;;;;;7.70;2.85;;;;;;;38.97;30.01;100481.92;1686340;83;21133;-73
2022/07/08 09:53:45;;;;;;;10.35;2.70;;;;;;;38.64;28.98;100474.87;1687216;84;21084;-73
2022/07/08 09:56:12;;;;;;;7.03;2.60;;;;;;;38.78;28.71;100474.72;1682885;83;21041;-73
2022/07/08 09:58:39;;;;;;;6.08;2.92;;;;;;;38.63;27.59;100469.22;1678133;84;21052;-72
2022/07/08 10:01:07;;;;;;;5.75;2.60;;;;;;;38.84;27.97;100471.00;1674790;84;21111;-72
2022/07/08 10:03:35;;;;;;;6.00;2.50;;;;;;;38.63;29.20;100467.87;1678824;83;21060;-73
2022/07/08 10:06:04;;;;;;;12.05;2.70;;;;;;;38.72;28.37;100473.59;1678258;84;21542;-73
2022/07/08 10:08:32;;;;;;;9.90;2.80;;;;;;;38.70;28.55;100463.08;1688861;84;21040;-72
2022/07/08 10:11:04;;;;;;;6.25;2.60;;;;;;;38.45;28.13;100461.76;1685198;85;21078;-73
2022/07/08 10:13:33;;;;;;;6.30;2.52;;;;;;;38.95;28.94;100470.56;1660591;85;21081;-73
2022/07/08 10:16:04;;;;;;;6.10;2.55;;;;;;;39.32;28.93;100468.42;1664419;86;21082;-72
2022/07/08 10:18:49;;;;;;;6.95;2.62;;;;;;;38.85;28.03;100473.98;1658484;85;21214;-73
2022/07/08 10:21:21;;;;;;;5.95;2.70;;;;;;;38.61;27.22;100466.78;1657080;86;21033;-72
2022/07/08 10:23:53;;;;;;;6.72;2.50;;;;;;;38.71;26.44;100464.72;1647814;84;21037;-73
2022/07/08 10:26:28;;;;;;;5.70;2.45;;;;;;;38.70;27.79;100457.70;1652097;85;21092;-71
2022/07/08 10:29:08;;;;;;;5.80;2.60;;;;;;;38.80;28.45;100461.82;1649298;85;21102;-73
2022/07/08 10:31:48;;;;;;;7.62;2.40;;;;;;;39.32;29.67;100450.08;1659751;86;21010;-73
2022/07/08 10:34:21;;;;;;;7.72;2.33;;;;;;;38.96;28.97;100451.19;1684733;85;21061;-72
2022/07/08 10:36:51;;;;;;;9.83;2.60;;;;;;;38.84;27.49;100455.39;1685631;83;21026;-73
2022/07/08 10:39:40;;;;;;;10.53;2.58;;;;;;;39.31;29.21;100449.82;1681544;84;21539;-73
2022/07/08 10:42:10;;;;;;;10.32;2.90;;;;;;;39.17;27.57;100452.96;1662485;84;21109;-74
2022/07/08 10:44:49;;;;;;;6.72;2.67;;;;;;;39.53;28.17;100449.16;1670470;84;21070;-73
2022/07/08 10:47:29;;;;;;;6.70;2.55;;;;;;;39.77;28.01;100448.73;1674740;83;21096;-73
2022/07/08 10:50:08;;;;;;;9.83;2.50;;;;;;;42.17;26.75;100454.52;1650197;85;21097;-73
2022/07/08 10:52:42;;;;;;;7.30;2.55;;;;;;;40.34;27.54;100443.00;1671086;84;21101;-72
2022/07/08 10:55:17;;;;;;;8.80;2.85;;;;;;;39.62;27.29;100444.07;1683994;85;21120;-72
2022/07/08 10:57:58;;;;;;;7.58;2.45;;;;;;;39.77;26.95;100435.26;1686198;85;21089;-72
2022/07/08 11:00:35;;;;;;;10.58;2.75;;;;;;;39.96;27.26;100435.61;1685767;85;21618;-72
2022/07/08 11:03:02;;;;;;;6.40;2.70;;;;;;;39.34;27.74;100434.47;1685273;85;21521;-72
2022/07/08 11:05:41;;;;;;;8.70;2.42;;;;;;;39.53;28.31;100439.73;1685630;85;21640;-72
2022/07/08 11:08:23;;;;;;;4.03;2.50;;;;;;;40.25;27.96;100439.97;1685698;85;21089;-73
2022/07/08 11:10:53;;;;;;;4.22;2.50;;;;;;;39.79;27.73;100439.84;1685928;85;21042;-72
2022/07/08 11:13:21;;;;;;;6.95;2.42;;;;;;;39.95;28.10;100434.80;1685911;85;21101;-72
2022/07/08 11:15:48;;;;;;;9.48;2.75;;;;;;;40.53;27.81;100431.94;1685795;85;21688;-72
2022/07/08 11:18:24;;;;;;;8.78;2.87;;;;;;;40.33;27.03;100436.80;1685554;85;21105;-73
2022/07/08 11:21:00;;;;;;;7.97;2.65;;;;;;;40.28;25.00;100434.05;1685926;85;21014;-72
2022/07/08 11:23:31;;;;;;;7.20;2.40;;;;;;;40.28;25.21;100434.05;1686307;85;21061;-72
2022/07/08 11:25:59;;;;;;;8.20;2.60;;;;;;;40.29;23.73;100428.95;1685896;85;21145;-71
2022/07/08 11:28:26;;;;;;;4.92;2.50;;;;;;;39.86;25.31;100424.25;1686365;85;21017;-72
2022/07/08 11:30:53;;;;;;;9.93;2.77;;;;;;;40.47;26.70;100422.77;1686148;85;21065;-71